createdAt,value
2019-01-26T00:00:43.073Z,72.33
2019-01-26T00:05:40.019Z,75.20
2019-01-26T00:10:36.911Z,67.50
2019-01-26T00:15:34.012Z,65.67
2019-01-26T00:20:31.000Z,81.77
2019-01-26T00:25:28.138Z,73.47
2019-01-26T00:30:25.036Z,79.07
2019-01-26T00:35:22.448Z,76.57
2019-01-26T00:40:20.224Z,73.60
2019-01-26T00:45:17.188Z,82.00
2019-01-26T00:50:14.388Z,61.00
2019-01-26T00:55:12.121Z,84.33
2019-01-26T01:00:19.154Z,76.23
2019-01-26T01:05:16.681Z,68.30
2019-01-26T01:10:17.429Z,77.17
2019-01-26T01:15:20.074Z,69.73
2019-01-26T01:20:18.189Z,88.43
2019-01-26T01:25:15.141Z,65.43
2019-01-26T01:30:23.556Z,78.07
2019-01-26T01:35:20.477Z,88.97
2019-01-26T01:40:17.735Z,82.77
2019-01-26T01:45:18.199Z,75.63
2019-01-26T01:50:15.250Z,73.90
2019-01-26T01:55:12.748Z,69.60
2019-01-26T02:00:19.936Z,82.30
2019-01-26T02:05:17.175Z,79.80
2019-01-26T02:10:18.315Z,65.97
2019-01-26T02:15:15.238Z,66.63
2019-01-26T02:20:16.488Z,78.57
2019-01-26T02:25:13.387Z,67.40
2019-01-26T02:30:17.196Z,65.30
2019-01-26T02:35:14.113Z,78.00
2019-01-26T02:40:13.948Z,74.77
2019-01-26T02:45:13.164Z,77.43
2019-01-26T02:50:16.612Z,69.27
2019-01-26T02:55:13.720Z,80.77
2019-01-26T03:00:22.500Z,84.00
2019-01-26T03:05:19.413Z,82.40
2019-01-26T03:10:19.480Z,80.73
2019-01-26T03:15:19.673Z,88.13
2019-01-26T03:20:17.532Z,84.60
2019-01-26T03:25:15.526Z,78.83
2019-01-26T03:30:17.104Z,80.73
2019-01-26T03:35:14.100Z,90.07
2019-01-26T03:40:18.207Z,78.90
2019-01-26T03:45:16.410Z,73.13
2019-01-26T03:50:15.230Z,92.37
2019-01-26T03:55:20.247Z,82.00
2019-01-26T04:00:23.914Z,87.17
2019-01-26T04:05:21.026Z,85.03
2019-01-26T04:10:18.072Z,78.43
2019-01-26T04:15:17.992Z,83.13
2019-01-26T04:20:20.217Z,75.60
2019-01-26T04:25:17.122Z,72.50
2019-01-26T04:30:18.794Z,61.07
2019-01-26T04:35:15.898Z,71.37
2019-01-26T04:40:15.933Z,63.57
2019-01-26T04:45:19.309Z,72.27
2019-01-26T04:50:18.358Z,79.93
2019-01-26T04:55:18.293Z,73.37
2019-01-26T05:00:26.128Z,58.30
2019-01-26T05:05:23.129Z,45.47
2019-01-26T05:10:20.593Z,36.40
2019-01-26T05:15:18.235Z,44.63
2019-01-26T05:20:21.380Z,36.13
2019-01-26T05:25:18.301Z,25.63
2019-01-26T05:30:19.136Z,26.10
2019-01-26T05:35:16.032Z,35.33
2019-01-26T05:40:15.989Z,31.40
2019-01-26T05:45:16.489Z,29.70
2019-01-26T05:50:17.579Z,28.27
2019-01-26T05:55:14.494Z,27.60
2019-01-26T06:00:20.173Z,27.40
2019-01-26T06:05:17.289Z,29.80
2019-01-26T06:10:14.240Z,26.00
2019-01-26T06:15:11.538Z,33.33
2019-01-26T06:20:12.093Z,35.10
2019-01-26T06:25:15.985Z,28.90
2019-01-26T06:30:22.586Z,35.93
2019-01-26T06:35:19.490Z,42.37
2019-01-26T06:40:18.734Z,39.53
2019-01-26T06:45:18.046Z,28.87
2019-01-26T06:50:19.877Z,23.00
2019-01-26T06:55:16.789Z,26.30
2019-01-26T07:00:17.632Z,26.77
2019-01-26T07:05:16.746Z,26.47
2019-01-26T07:10:14.110Z,28.43
2019-01-26T07:15:11.720Z,29.27
2019-01-26T07:20:15.292Z,28.07
2019-01-26T07:25:12.201Z,24.43
2019-01-26T07:30:19.917Z,25.90
2019-01-26T07:35:17.016Z,25.70
2019-01-26T07:40:22.072Z,24.40
2019-01-26T07:45:19.081Z,30.53
2019-01-26T07:50:19.974Z,23.83
2019-01-26T07:55:16.875Z,26.47
2019-01-26T08:00:18.437Z,24.30
2019-01-26T08:05:15.649Z,25.90
2019-01-26T08:10:16.676Z,22.93
2019-01-26T08:15:17.925Z,24.83
2019-01-26T08:20:18.288Z,24.67
2019-01-26T08:25:15.525Z,36.70
2019-01-26T08:30:16.785Z,23.30
2019-01-26T08:35:13.697Z,21.70
2019-01-26T08:40:14.339Z,22.70
2019-01-26T08:45:13.248Z,20.60
2019-01-26T08:50:14.467Z,18.10
2019-01-26T08:55:18.147Z,18.83
2019-01-26T09:00:26.698Z,18.77
2019-01-26T09:05:25.416Z,18.07
2019-01-26T09:10:22.374Z,17.93
2019-01-26T09:15:19.303Z,19.63
2019-01-26T09:20:17.221Z,21.23
2019-01-26T09:25:14.241Z,19.50
2019-01-26T09:30:16.280Z,25.53
2019-01-26T09:35:13.325Z,21.17
2019-01-26T09:40:21.973Z,22.27
2019-01-26T09:45:20.217Z,25.90
2019-01-26T09:50:19.157Z,54.17
2019-01-26T09:55:18.603Z,78.53
2019-01-26T10:00:22.252Z,52.20
2019-01-26T10:05:19.258Z,32.63
2019-01-26T10:10:16.601Z,27.97
2019-01-26T10:15:23.221Z,25.17
2019-01-26T10:20:27.724Z,23.93
2019-01-26T10:25:24.641Z,23.67
2019-01-26T10:30:27.553Z,21.77
2019-01-26T10:35:26.328Z,20.70
2019-01-26T10:40:41.985Z,21.27
2019-01-26T10:45:39.080Z,18.53
2019-01-26T10:50:36.049Z,22.40
2019-01-26T10:55:33.003Z,20.77
2019-01-26T11:00:30.033Z,32.27
2019-01-26T11:05:26.973Z,23.37
2019-01-26T11:10:24.130Z,26.77
2019-01-26T11:15:21.028Z,22.77
2019-01-26T11:20:18.014Z,21.80
2019-01-26T11:25:15.404Z,21.20
2019-01-26T11:30:17.398Z,20.67
2019-01-26T11:35:17.304Z,28.97
2019-01-26T11:40:16.386Z,23.50
2019-01-26T11:45:16.739Z,22.43
2019-01-26T11:50:24.364Z,25.33
2019-01-26T11:55:23.058Z,23.57
2019-01-26T12:00:31.206Z,29.67
2019-01-26T12:05:29.944Z,24.67
2019-01-26T12:10:26.851Z,23.23
2019-01-26T12:15:24.401Z,24.37
2019-01-26T12:20:21.304Z,26.43
2019-01-26T12:25:18.293Z,27.10
2019-01-26T12:30:15.458Z,23.87
2019-01-26T12:35:14.293Z,27.23
2019-01-26T12:40:14.407Z,23.23
2019-01-26T12:45:16.301Z,30.33
2019-01-26T12:50:13.423Z,27.40
2019-01-26T12:55:16.060Z,29.37
2019-01-26T13:00:23.074Z,33.43
2019-01-26T13:05:20.269Z,26.60
2019-01-26T13:10:25.649Z,23.60
2019-01-26T13:15:22.850Z,23.83
2019-01-26T13:20:20.491Z,29.47
2019-01-26T13:25:18.238Z,27.40
2019-01-26T13:30:24.312Z,26.40
2019-01-26T13:35:21.233Z,25.47
2019-01-26T13:40:27.920Z,27.93
2019-01-26T13:45:24.841Z,25.10
2019-01-26T13:50:21.797Z,25.27
2019-01-26T13:55:21.011Z,23.33
2019-01-26T14:00:36.273Z,24.20
2019-01-26T14:05:33.198Z,26.47
2019-01-26T14:10:31.639Z,27.77
2019-01-26T14:15:28.644Z,33.07
2019-01-26T14:20:27.478Z,28.33
2019-01-26T14:25:25.838Z,27.00
2019-01-26T14:30:37.119Z,26.87
2019-01-26T14:35:34.024Z,26.13
2019-01-26T14:40:31.345Z,26.90
2019-01-26T14:45:29.188Z,29.87
2019-01-26T14:50:26.493Z,29.10
2019-01-26T14:55:28.826Z,29.87
2019-01-26T15:00:29.613Z,25.93
2019-01-26T15:05:27.237Z,26.53
2019-01-26T15:10:24.391Z,29.47
2019-01-26T15:15:21.485Z,31.07
2019-01-26T15:20:35.434Z,25.43
2019-01-26T15:25:32.440Z,31.33
2019-01-26T15:30:38.497Z,24.63
2019-01-26T15:35:35.417Z,28.33
2019-01-26T15:40:32.375Z,26.80
2019-01-26T15:45:36.655Z,27.60
2019-01-26T15:50:33.660Z,27.27
2019-01-26T15:55:30.610Z,28.63
2019-01-26T16:00:40.458Z,29.57
2019-01-26T16:05:37.601Z,29.23
2019-01-26T16:10:34.544Z,33.73
2019-01-26T16:15:34.965Z,28.33
2019-01-26T16:20:31.921Z,27.40
2019-01-26T16:25:29.005Z,26.93
2019-01-26T16:30:29.866Z,32.23
2019-01-26T16:35:26.959Z,131.53
2019-01-26T16:40:30.223Z,61.73
2019-01-26T16:45:30.733Z,34.37
2019-01-26T16:50:29.978Z,36.77
2019-01-26T16:55:27.005Z,36.10
2019-01-26T17:00:38.459Z,39.67
2019-01-26T17:05:35.369Z,34.07
2019-01-26T17:10:34.321Z,78.47
2019-01-26T17:15:31.602Z,165.17
2019-01-26T17:20:37.849Z,146.03
2019-01-26T17:25:34.748Z,117.73
2019-01-26T17:30:39.013Z,65.13
2019-01-26T17:35:36.607Z,40.70
2019-01-26T17:40:33.704Z,43.03
2019-01-26T17:45:30.598Z,47.00
2019-01-26T17:50:28.345Z,46.20
2019-01-26T17:55:25.269Z,46.13
2019-01-26T18:00:33.269Z,44.10
2019-01-26T18:05:31.104Z,41.73
2019-01-26T18:10:28.062Z,36.70
2019-01-26T18:15:25.012Z,31.90
2019-01-26T18:20:25.525Z,31.13
2019-01-26T18:25:24.343Z,32.77
2019-01-26T18:30:29.516Z,28.60
2019-01-26T18:35:26.438Z,28.47
2019-01-26T18:40:28.766Z,35.77
2019-01-26T18:45:30.731Z,36.70
2019-01-26T18:50:41.066Z,42.27
2019-01-26T18:55:38.137Z,36.07
2019-01-26T19:00:42.256Z,37.90
2019-01-26T19:05:39.227Z,35.40
2019-01-26T19:10:36.173Z,34.27
2019-01-26T19:15:33.107Z,35.70
2019-01-26T19:20:30.144Z,35.47
2019-01-26T19:25:27.045Z,33.07
2019-01-26T19:30:24.134Z,30.83
2019-01-26T19:35:21.189Z,33.30
2019-01-26T19:40:22.986Z,37.23
2019-01-26T19:45:23.666Z,30.57
2019-01-26T19:50:23.832Z,39.30
2019-01-26T19:55:22.769Z,28.87
2019-01-26T20:00:20.071Z,32.20
2019-01-26T20:05:24.381Z,28.60
2019-01-26T20:10:22.010Z,34.03
2019-01-26T20:15:23.864Z,28.97
2019-01-26T20:20:28.873Z,31.37
2019-01-26T20:25:26.000Z,31.63
2019-01-26T20:30:30.632Z,27.80
2019-01-26T20:35:27.543Z,28.60
2019-01-26T20:40:24.604Z,25.97
2019-01-26T20:45:24.901Z,31.30
2019-01-26T20:50:21.972Z,30.30
2019-01-26T20:55:19.106Z,27.83
2019-01-26T21:00:27.016Z,25.73
2019-01-26T21:05:24.229Z,27.13
2019-01-26T21:10:24.378Z,31.33
2019-01-26T21:15:22.944Z,27.20
2019-01-26T21:20:22.725Z,28.70
2019-01-26T21:25:19.830Z,29.33
2019-01-26T21:30:25.576Z,28.97
2019-01-26T21:35:23.464Z,32.80
2019-01-26T21:40:28.803Z,32.87
2019-01-26T21:45:25.736Z,29.40
2019-01-26T21:50:28.349Z,31.87
2019-01-26T21:55:25.270Z,25.63
2019-01-26T22:00:25.593Z,25.30
2019-01-26T22:05:22.490Z,30.07
2019-01-26T22:10:24.009Z,28.10
2019-01-26T22:15:22.522Z,30.13
2019-01-26T22:20:26.133Z,33.33
2019-01-26T22:25:23.445Z,29.10
2019-01-26T22:30:23.304Z,28.47
2019-01-26T22:35:20.715Z,31.57
2019-01-26T22:40:24.078Z,30.17
2019-01-26T22:45:21.776Z,29.67
2019-01-26T22:50:24.909Z,26.37
2019-01-26T22:55:22.101Z,28.10
2019-01-26T23:00:45.570Z,26.53
2019-01-26T23:06:06.130Z,29.23
2019-01-26T23:11:11.759Z,33.47
2019-01-26T23:16:44.189Z,28.37
2019-01-26T23:21:58.507Z,29.77
2019-01-26T23:27:13.181Z,30.23
2019-01-26T23:32:10.104Z,26.37
2019-01-26T23:37:07.089Z,34.07
2019-01-26T23:42:03.987Z,31.23
2019-01-26T23:47:00.937Z,33.70
2019-01-26T23:51:57.830Z,28.07
2019-01-26T23:56:54.836Z,29.93
